Time;durP1;ratioP1;P1;durP2;ratioP2;P2;SDS_P1;SDS_P2;PMS_P1;PMS_P2;Temp;Humidity;BMP_temperature;BMP_pressure;BME280_temperature;BME280_humidity;BME280_pressure;Samples;Min_cycle;Max_cycle;Signal;HPM_P1;HPM_P2
2022/09/08 00:00:50;;;;;;;;;;;;;;;-144.99;100.00;52244.28;5049339;28;20286;-70
2022/09/08 00:03:18;;;;;;;;;;;;;;;-144.99;100.00;52227.97;5049281;28;19931;-69
2022/09/08 00:05:45;;;;;;;;;;;;;;;-144.99;100.00;52238.16;5045676;28;19931;-70
2022/09/08 00:08:12;;;;;;;;;;;;;;;-144.99;100.00;52244.28;5049587;28;19971;-69
2022/09/08 00:10:39;;;;;;;;;;;;;;;-144.99;100.00;52234.09;5049435;28;20032;-69
2022/09/08 00:13:07;;;;;;;;;;;;;;;-144.99;100.00;52203.50;5048011;28;20330;-73
2022/09/08 00:15:36;;;;;;;;;;;;;;;-144.99;100.00;52252.44;5037255;28;20443;-74
2022/09/08 00:18:03;;;;;;;;;;;;;;;-144.99;100.00;52195.34;5046319;28;19931;-85
2022/09/08 00:20:29;;;;;;;;;;;;;;;-144.99;100.00;52215.75;5060192;28;19982;-82
2022/09/08 00:22:56;;;;;;;;;;;;;;;-144.99;100.00;52234.09;5051109;28;19964;-72
2022/09/08 00:25:22;;;;;;;;;;;;;;;-144.99;100.00;52215.75;5045865;28;20326;-72
2022/09/08 00:27:49;;;;;;;;;;;;;;;-144.99;100.00;52197.41;5048339;28;19935;-71
2022/09/08 00:30:16;;;;;;;;;;;;;;;-144.99;100.00;52195.34;5036011;28;20373;-70
2022/09/08 00:32:44;;;;;;;;;;;;;;;-144.99;100.00;52211.66;5048592;28;19925;-70
2022/09/08 00:35:18;;;;;;;;;;;;;;;-144.99;100.00;52256.50;5038688;28;19932;-71
2022/09/08 00:37:45;;;;;;;;;;;;;;;-144.99;100.00;52191.28;5046831;28;20355;-70
2022/09/08 00:40:12;;;;;;;;;;;;;;;-144.99;100.00;52227.97;5049855;28;20023;-73
2022/09/08 00:42:38;;;;;;;;;;;;;;;-144.99;100.00;52227.97;5048976;28;19924;-73
2022/09/08 00:45:05;;;;;;;;;;;;;;;-144.99;100.00;52227.97;5049475;28;20378;-71
2022/09/08 00:47:34;;;;;;;;;;;;;;;-144.99;100.00;52223.88;5047932;28;19955;-71
2022/09/08 00:50:03;;;;;;;;;;;;;;;-144.99;100.00;52240.19;5045856;28;19925;-72
2022/09/08 00:52:34;;;;;;;;;;;;;;;-144.99;100.00;52225.94;5036426;28;19925;-73
2022/09/08 00:55:01;;;;;;;;;;;;;;;-144.99;100.00;52244.28;5047221;28;19951;-76
2022/09/08 00:57:27;;;;;;;;;;;;;;;-144.99;100.00;52258.53;5047170;28;19940;-77
2022/09/08 00:59:54;;;;;;;;;;;;;;;-144.99;100.00;52234.09;5045891;28;19924;-76
2022/09/08 01:02:22;;;;;;;;;;;;;;;-144.99;100.00;52223.88;5050459;28;20377;-77
2022/09/08 01:04:49;;;;;;;;;;;;;;;-144.99;100.00;52248.34;5049156;28;20334;-76
2022/09/08 01:12:55;;;;;;;;;;;;;;;-144.99;100.00;52276.88;5043892;28;19950;-77
2022/09/08 01:15:23;;;;;;;;;;;;;;;-144.99;100.00;52264.66;5039919;28;20003;-76
2022/09/08 01:17:51;;;;;;;;;;;;;;;-144.99;100.00;52215.75;5042080;28;19941;-76
2022/09/08 01:20:19;;;;;;;;;;;;;;;-144.99;100.00;52246.31;5044818;28;19951;-76
2022/09/08 01:22:58;;;;;;;;;;;;;;;-144.99;100.00;52213.69;5050325;28;19929;-74
2022/09/08 01:25:39;;;;;;;;;;;;;;;-144.99;100.00;52285.03;5044225;28;19932;-74
2022/09/08 01:28:10;;;;;;;;;;;;;;;-144.99;100.00;52244.28;5039705;28;20029;-74
2022/09/08 01:30:36;;;;;;;;;;;;;;;-144.99;100.00;52248.34;5039168;28;20373;-77
2022/09/08 01:33:05;;;;;;;;;;;;;;;-144.99;100.00;52223.88;5043224;28;20272;-70
2022/09/08 01:35:32;;;;;;;;;;;;;;;-144.99;100.00;52252.44;5046848;28;19964;-73
2022/09/08 01:40:43;;;;;;;;;;;;;;;-144.99;100.00;52236.13;5052099;28;19936;-72
2022/09/08 01:43:11;;;;;;;;;;;;;;;-144.99;100.00;52248.34;5039952;28;19938;-73
2022/09/08 01:45:38;;;;;;;;;;;;;;;-144.99;100.00;52256.50;5048960;28;19932;-74
2022/09/08 01:48:05;;;;;;;;;;;;;;;-144.99;100.00;52254.47;5042062;28;19925;-75
2022/09/08 01:50:32;;;;;;;;;;;;;;;-144.99;100.00;52262.63;5050889;28;20011;-75
2022/09/08 01:52:58;;;;;;;;;;;;;;;-144.99;100.00;52248.34;5051361;28;19947;-72
2022/09/08 01:55:25;;;;;;;;;;;;;;;-144.99;100.00;52268.72;5043879;28;19925;-72
2022/09/08 01:57:51;;;;;;;;;;;;;;;-144.99;100.00;52211.66;5045539;28;19979;-71
2022/09/08 02:00:20;;;;;;;;;;;;;;;-144.99;100.00;52240.19;5041230;28;20135;-72
2022/09/08 02:02:46;;;;;;;;;;;;;;;-144.99;100.00;52236.13;5044476;28;20019;-71
2022/09/08 02:05:14;;;;;;;;;;;;;;;-144.99;100.00;52232.03;5051490;28;19924;-71
2022/09/08 02:07:40;;;;;;;;;;;;;;;-144.99;100.00;52256.50;5050027;28;19924;-70
2022/09/08 02:10:08;;;;;;;;;;;;;;;-144.99;100.00;52219.81;5046525;28;19947;-71
2022/09/08 02:12:34;;;;;;;;;;;;;;;-144.99;100.00;52244.28;5050823;28;19979;-70
2022/09/08 02:15:01;;;;;;;;;;;;;;;-144.99;100.00;52227.97;5045912;28;19929;-70
2022/09/08 02:17:29;;;;;;;;;;;;;;;-144.99;100.00;52244.28;5047705;28;19931;-70
2022/09/08 02:19:56;;;;;;;;;;;;;;;-144.99;100.00;52227.97;5051320;28;19978;-70
2022/09/08 02:25:07;;;;;;;;;;;;;;;-144.99;100.00;52256.50;5044952;28;19932;-71
2022/09/08 02:27:34;;;;;;;;;;;;;;;-144.99;100.00;52260.56;5048016;28;19929;-70
2022/09/08 02:30:00;;;;;;;;;;;;;;;-144.99;100.00;52248.34;5048878;28;20401;-71
2022/09/08 02:32:27;;;;;;;;;;;;;;;-144.99;100.00;52248.34;5038661;28;19990;-71
2022/09/08 02:34:54;;;;;;;;;;;;;;;-144.99;100.00;52254.47;5052882;28;20015;-71
2022/09/08 02:37:21;;;;;;;;;;;;;;;-144.99;100.00;52240.19;5042473;28;19933;-71
2022/09/08 02:39:47;;;;;;;;;;;;;;;-144.99;100.00;52244.28;5046508;28;20282;-72
2022/09/08 02:42:14;;;;;;;;;;;;;;;-144.99;100.00;52280.97;5048443;28;19925;-71
2022/09/08 02:47:14;;;;;;;;;;;;;;;-144.99;100.00;52248.34;5047842;28;19932;-64
2022/09/08 02:49:41;;;;;;;;;;;;;;;-144.99;100.00;52248.34;5040695;28;20058;-65
2022/09/08 02:52:11;;;;;;;;;;;;;;;-144.99;100.00;52215.75;5030690;28;19925;-65
2022/09/08 02:54:38;;;;;;;;;;;;;;;-144.99;100.00;52256.50;5031272;28;19933;-64
2022/09/08 02:57:04;;;;;;;;;;;;;;;-144.99;100.00;52232.03;5030645;28;19925;-65
2022/09/08 02:59:31;;;;;;;;;;;;;;;-144.99;100.00;52268.72;5025347;28;20364;-64
2022/09/08 03:01:58;;;;;;;;;;;;;;;-144.99;100.00;52264.66;5028298;28;19937;-62
2022/09/08 03:04:26;;;;;;;;;;;;;;;-144.99;100.00;52240.19;5031061;28;20499;-63
2022/09/08 03:06:52;;;;;;;;;;;;;;;-144.99;100.00;52244.28;5022879;28;20035;-63
2022/09/08 03:09:20;;;;;;;;;;;;;;;-144.99;100.00;52244.28;5027035;28;20362;-60
2022/09/08 03:11:46;;;;;;;;;;;;;;;-144.99;100.00;52246.31;5023073;28;20401;-62
2022/09/08 03:14:13;;;;;;;;;;;;;;;-144.99;100.00;52232.03;5022694;28;19925;-62
2022/09/08 03:16:40;;;;;;;;;;;;;;;-144.99;100.00;52252.44;5029222;28;19935;-66
2022/09/08 03:19:07;;;;;;;;;;;;;;;-144.99;100.00;52223.88;5029234;28;19931;-66
2022/09/08 03:21:33;;;;;;;;;;;;;;;-144.99;100.00;52244.28;5030234;28;19929;-66
2022/09/08 03:24:01;;;;;;;;;;;;;;;-144.99;100.00;52221.84;5030801;28;19925;-67
2022/09/08 03:26:29;;;;;;;;;;;;;;;-144.99;100.00;52285.03;5028386;28;19956;-71
2022/09/08 03:28:55;;;;;;;;;;;;;;;-144.99;100.00;52248.34;5027789;28;20062;-72
2022/09/08 03:31:22;;;;;;;;;;;;;;;-144.99;100.00;52285.03;5028544;28;20082;-71
2022/09/08 03:33:49;;;;;;;;;;;;;;;-144.99;100.00;52236.13;5024886;28;20321;-73
2022/09/08 03:36:16;;;;;;;;;;;;;;;-144.99;100.00;52268.72;5030444;28;19925;-72
2022/09/08 03:38:42;;;;;;;;;;;;;;;-144.99;100.00;52244.28;5030651;28;19932;-72
2022/09/08 03:41:10;;;;;;;;;;;;;;;-144.99;100.00;52297.25;5028735;28;19975;-69
2022/09/08 03:43:38;;;;;;;;;;;;;;;-144.99;100.00;52293.19;5030156;28;20088;-70
2022/09/08 03:46:06;;;;;;;;;;;;;;;-144.99;100.00;52278.91;5030169;28;20016;-70
2022/09/08 03:48:34;;;;;;;;;;;;;;;-144.99;100.00;52278.91;5030406;28;19925;-70
2022/09/08 03:51:07;;;;;;;;;;;;;;;-144.99;100.00;52256.50;5028986;28;19965;-70
2022/09/08 03:53:34;;;;;;;;;;;;;;;-144.99;100.00;52232.03;5026963;28;20102;-69
2022/09/08 03:56:00;;;;;;;;;;;;;;;-144.99;100.00;52280.97;5029492;28;19936;-64
2022/09/08 03:58:26;;;;;;;;;;;;;;;-144.99;100.00;52236.13;5030346;28;19932;-63
2022/09/08 04:00:54;;;;;;;;;;;;;;;-144.99;100.00;52236.13;5028540;28;19925;-63
2022/09/08 04:03:21;;;;;;;;;;;;;;;-144.99;100.00;52280.97;5027488;28;20757;-62
2022/09/08 04:05:47;;;;;;;;;;;;;;;-144.99;100.00;52264.66;5030013;28;20023;-65
2022/09/08 04:08:14;;;;;;;;;;;;;;;-144.99;100.00;52268.72;5029153;28;19952;-64
2022/09/08 04:10:42;;;;;;;;;;;;;;;-144.99;100.00;52285.03;5027932;28;20024;-65
2022/09/08 04:13:09;;;;;;;;;;;;;;;-144.99;100.00;52227.97;5028089;28;19933;-65
2022/09/08 04:15:38;;;;;;;;;;;;;;;-144.99;100.00;52291.16;5029739;28;19925;-70
2022/09/08 04:18:06;;;;;;;;;;;;;;;-144.99;100.00;52240.19;5029429;28;20197;-70
2022/09/08 04:20:32;;;;;;;;;;;;;;;-144.99;100.00;52283.00;5029760;28;20381;-67
2022/09/08 04:22:59;;;;;;;;;;;;;;;-144.99;100.00;52244.28;5023712;28;19932;-66
2022/09/08 04:25:25;;;;;;;;;;;;;;;-144.99;100.00;52238.16;5028778;28;19964;-66
2022/09/08 04:27:51;;;;;;;;;;;;;;;-144.99;100.00;52256.50;5029790;28;19925;-65
2022/09/08 04:30:18;;;;;;;;;;;;;;;-144.99;100.00;52301.34;5029503;28;19925;-64
2022/09/08 04:32:44;;;;;;;;;;;;;;;-144.99;100.00;52301.34;5025253;28;19926;-65
2022/09/08 04:35:12;;;;;;;;;;;;;;;-144.99;100.00;52260.56;5028795;28;20019;-65
2022/09/08 04:37:39;;;;;;;;;;;;;;;-144.99;100.00;52293.19;5029105;28;19936;-67
2022/09/08 04:40:07;;;;;;;;;;;;;;;-144.99;100.00;52258.53;5029228;28;19929;-66
2022/09/08 04:42:33;;;;;;;;;;;;;;;-144.99;100.00;52272.81;5027400;28;19929;-66
2022/09/08 04:45:00;;;;;;;;;;;;;;;-144.99;100.00;52260.56;5028303;28;20035;-65
2022/09/08 04:47:26;;;;;;;;;;;;;;;-144.99;100.00;52268.72;5029031;28;19925;-67
2022/09/08 04:49:53;;;;;;;;;;;;;;;-144.99;100.00;52236.13;5029079;28;19929;-66
2022/09/08 04:52:24;;;;;;;;;;;;;;;-144.99;100.00;52254.47;5027455;28;20386;-65
2022/09/08 04:54:51;;;;;;;;;;;;;;;-144.99;100.00;52256.50;5028148;28;20440;-65
2022/09/08 04:57:18;;;;;;;;;;;;;;;-144.99;100.00;52252.44;5029213;28;19925;-68
2022/09/08 04:59:44;;;;;;;;;;;;;;;-144.99;100.00;52272.81;5029001;28;19929;-65
2022/09/08 05:02:11;;;;;;;;;;;;;;;-144.99;100.00;52244.28;5029828;28;19939;-69
2022/09/08 05:04:37;;;;;;;;;;;;;;;-144.99;100.00;52280.97;5023724;28;19930;-69
2022/09/08 05:07:04;;;;;;;;;;;;;;;-144.99;100.00;52256.50;5028934;28;20341;-68
2022/09/08 05:09:31;;;;;;;;;;;;;;;-144.99;100.00;52256.50;5029857;28;19948;-70
2022/09/08 05:11:58;;;;;;;;;;;;;;;-144.99;100.00;52244.28;5023554;28;19932;-70
2022/09/08 05:14:24;;;;;;;;;;;;;;;-144.99;100.00;52252.44;5028360;28;19933;-69
2022/09/08 05:16:51;;;;;;;;;;;;;;;-144.99;100.00;52250.38;5029135;28;19929;-69
2022/09/08 05:19:17;;;;;;;;;;;;;;;-144.99;100.00;52254.47;4680403;28;9999937;-69
2022/09/08 05:21:46;;;;;;;;;;;;;;;-144.99;100.00;52285.03;5029864;28;19929;-68
2022/09/08 05:24:12;;;;;;;;;;;;;;;-144.99;100.00;52270.78;5028716;28;20012;-68
2022/09/08 05:26:40;;;;;;;;;;;;;;;-144.99;100.00;52260.56;5030345;28;20362;-68
2022/09/08 05:29:07;;;;;;;;;;;;;;;-144.99;100.00;52236.13;5030322;28;19925;-68
2022/09/08 05:31:33;;;;;;;;;;;;;;;-144.99;99.64;52240.19;5029485;28;19929;-68
2022/09/08 05:34:01;;;;;;;;;;;;;;;-144.99;99.64;52268.72;5028835;28;19934;-69
2022/09/08 05:36:28;;;;;;;;;;;;;;;-144.99;99.10;52240.19;5027361;28;19929;-69
2022/09/08 05:38:55;;;;;;;;;;;;;;;-144.99;98.91;52291.16;5030216;28;20075;-69
2022/09/08 05:41:22;;;;;;;;;;;;;;;-144.99;98.23;52276.88;5024428;28;19933;-68
2022/09/08 05:43:51;;;;;;;;;;;;;;;-144.99;98.12;52272.81;5023923;28;19935;-69
2022/09/08 05:46:18;;;;;;;;;;;;;;;-144.99;98.11;52278.91;5029325;28;19929;-68
2022/09/08 05:48:45;;;;;;;;;;;;;;;-144.99;97.86;52268.72;5029348;28;19936;-69
2022/09/08 05:51:12;;;;;;;;;;;;;;;-144.99;97.95;52252.44;5026952;28;19940;-69
2022/09/08 05:53:38;;;;;;;;;;;;;;;-144.99;97.65;52264.66;5025468;28;20382;-69
2022/09/08 05:56:06;;;;;;;;;;;;;;;-144.99;97.43;52260.56;5029206;28;20031;-69
2022/09/08 05:58:33;;;;;;;;;;;;;;;-144.99;96.80;52276.88;5029249;28;19925;-69
2022/09/08 06:01:02;;;;;;;;;;;;;;;-144.99;96.99;52276.88;5029402;28;19929;-71
2022/09/08 06:03:28;;;;;;;;;;;;;;;-144.99;97.08;52285.03;5025053;28;19929;-69
2022/09/08 06:05:55;;;;;;;;;;;;;;;-144.99;96.83;52230.00;5025446;28;19926;-69
2022/09/08 06:08:21;;;;;;;;;;;;;;;-144.99;96.64;52289.13;5029503;28;20276;-68
2022/09/08 06:10:49;;;;;;;;;;;;;;;-144.99;96.45;52293.19;5029064;28;19956;-69
2022/09/08 06:13:15;;;;;;;;;;;;;;;-144.99;96.05;52225.94;5021559;28;19933;-69
2022/09/08 06:15:41;;;;;;;;;;;;;;;-144.99;95.67;52248.34;5026638;28;19940;-70
2022/09/08 06:18:09;;;;;;;;;;;;;;;-144.99;96.00;52285.03;5028664;28;19929;-68
2022/09/08 06:20:36;;;;;;;;;;;;;;;-144.99;96.08;52234.09;5027656;28;20371;-68
2022/09/08 06:23:03;;;;;;;;;;;;;;;-144.99;95.94;52266.69;5024878;28;19936;-71
2022/09/08 06:25:30;;;;;;;;;;;;;;;-144.99;95.62;52280.97;5028588;28;19936;-70
2022/09/08 06:27:59;;;;;;;;;;;;;;;-144.99;95.79;52248.34;5028564;28;19929;-70
2022/09/08 06:30:25;;;;;;;;;;;;;;;-144.99;94.73;52260.56;5028778;28;19929;-70
2022/09/08 06:32:55;;;;;;;;;;;;;;;-144.99;94.10;52272.81;5025998;28;20397;-69
2022/09/08 06:35:26;;;;;;;;;;;;;;;-144.99;94.26;52289.13;5028225;28;19933;-69
2022/09/08 06:37:55;;;;;;;;;;;;;;;-144.99;94.06;52240.19;5028923;28;20391;-69
2022/09/08 06:40:24;;;;;;;;;;;;;;;-144.99;93.93;52252.44;5028167;28;20038;-69
2022/09/08 06:42:58;;;;;;;;;;;;;;;-144.99;93.28;52272.81;5027454;28;20394;-69
2022/09/08 06:45:26;;;;;;;;;;;;;;;-144.99;92.88;52280.97;5026316;28;19965;-69
2022/09/08 06:48:13;;;;;;;;;;;;;;;-144.99;91.82;52248.34;5028603;28;19925;-69
2022/09/08 06:50:48;;;;;;;;;;;;;;;-144.99;91.73;52248.34;5020097;28;19929;-70
2022/09/08 06:53:19;;;;;;;;;;;;;;;-144.99;91.46;52266.69;5027646;28;19929;-68
2022/09/08 06:55:49;;;;;;;;;;;;;;;-144.99;90.77;52260.56;5027430;28;20397;-69
2022/09/08 06:58:20;;;;;;;;;;;;;;;-144.99;90.61;52289.13;5026235;28;20501;-68
2022/09/08 07:00:49;;;;;;;;;;;;;;;-144.99;89.94;52256.50;5028483;28;20013;-68
2022/09/08 07:03:26;;;;;;;;;;;;;;;-144.99;89.51;52236.13;5028532;28;19929;-68
2022/09/08 07:06:01;;;;;;;;;;;;;;;-144.99;89.56;52248.34;5024584;28;19936;-69
2022/09/08 07:08:45;;;;;;;;;;;;;;;-144.99;89.41;52264.66;5028427;28;19929;-67
2022/09/08 07:11:18;;;;;;;;;;;;;;;-144.99;89.04;52248.34;5026500;28;19933;-69
2022/09/08 07:13:49;;;;;;;;;;;;;;;-144.99;88.68;52215.75;5028593;28;19929;-68
2022/09/08 07:16:19;;;;;;;;;;;;;;;-144.99;88.46;52236.13;5026856;28;19973;-67
2022/09/08 07:18:49;;;;;;;;;;;;;;;-144.99;87.61;52280.97;5027645;28;19929;-69
2022/09/08 07:21:20;;;;;;;;;;;;;;;-144.99;87.90;52283.00;5028583;28;19925;-69
2022/09/08 07:23:47;;;;;;;;;;;;;;;-144.99;87.42;52293.19;5028195;28;20400;-69
2022/09/08 07:26:18;;;;;;;;;;;;;;;-144.99;87.24;52240.19;5026446;28;19929;-69
2022/09/08 07:28:46;;;;;;;;;;;;;;;-144.99;86.81;52248.34;5025970;28;20308;-71
2022/09/08 07:31:16;;;;;;;;;;;;;;;-144.99;86.97;52293.19;5027693;28;20471;-68
2022/09/08 07:33:44;;;;;;;;;;;;;;;-144.99;87.14;52234.09;5027923;28;19929;-69
2022/09/08 07:36:14;;;;;;;;;;;;;;;-144.99;86.47;52244.28;5018228;28;20465;-69
2022/09/08 07:38:46;;;;;;;;;;;;;;;-144.99;86.37;52260.56;5023267;28;19952;-69
2022/09/08 07:41:16;;;;;;;;;;;;;;;-144.99;86.35;52244.28;5027837;28;19929;-69
2022/09/08 07:43:42;;;;;;;;;;;;;;;-144.99;85.86;52248.34;5027241;28;19929;-69
2022/09/08 07:46:21;;;;;;;;;;;;;;;-144.99;85.47;52289.13;5025632;28;19936;-69
2022/09/08 07:48:50;;;;;;;;;;;;;;;-144.99;84.83;52270.78;5024956;28;19929;-68
2022/09/08 07:51:18;;;;;;;;;;;;;;;-144.99;85.35;52264.66;5027603;28;20190;-70
2022/09/08 07:53:55;;;;;;;;;;;;;;;-144.99;85.19;52260.56;5027051;28;19925;-70
2022/09/08 07:56:23;;;;;;;;;;;;;;;-144.99;84.54;52276.88;5025391;28;20003;-69
2022/09/08 07:58:58;;;;;;;;;;;;;;;-144.99;84.60;52246.31;5027199;28;20100;-70
2022/09/08 08:01:32;;;;;;;;;;;;;;;-144.99;84.77;52238.16;5022089;28;19932;-69
2022/09/08 08:04:03;;;;;;;;;;;;;;;-144.99;84.76;52258.53;5023056;28;20305;-70
2022/09/08 08:06:37;;;;;;;;;;;;;;;-144.99;84.79;52252.44;5023753;28;20473;-72
2022/09/08 08:09:11;;;;;;;;;;;;;;;-144.99;84.73;52264.66;5025927;28;20322;-70
2022/09/08 08:11:42;;;;;;;;;;;;;;;-144.99;84.56;52305.41;5025956;28;19929;-69
2022/09/08 08:14:13;;;;;;;;;;;;;;;-144.99;84.21;52207.59;5026464;28;20218;-69
2022/09/08 08:16:46;;;;;;;;;;;;;;;-144.99;83.83;52240.19;5023390;28;20365;-70
2022/09/08 08:19:20;;;;;;;;;;;;;;;-144.99;83.33;52219.81;5024167;28;19936;-69
2022/09/08 08:21:49;;;;;;;;;;;;;;;-144.99;83.21;52240.19;5027225;28;20314;-70
2022/09/08 08:24:24;;;;;;;;;;;;;;;-144.99;83.46;52240.19;5027243;28;19935;-69
2022/09/08 08:26:54;;;;;;;;;;;;;;;-144.99;83.31;52278.91;5025704;28;19925;-69
2022/09/08 08:29:37;;;;;;;;;;;;;;;-144.99;83.53;52232.03;5027155;28;19935;-69
2022/09/08 08:32:06;;;;;;;;;;;;;;;-144.99;83.10;52248.34;5024247;28;19954;-69
2022/09/08 08:34:39;;;;;;;;;;;;;;;-144.99;83.02;52236.13;5026517;28;20015;-70
2022/09/08 08:37:07;;;;;;;;;;;;;;;-144.99;82.28;52256.50;5026756;28;19976;-69
2022/09/08 08:39:37;;;;;;;;;;;;;;;-144.99;82.13;52252.44;5027391;28;20008;-69
2022/09/08 08:42:16;;;;;;;;;;;;;;;-144.99;81.25;52244.28;5025489;28;19933;-69
2022/09/08 08:44:48;;;;;;;;;;;;;;;-144.99;81.40;52260.56;5027025;28;20306;-69
2022/09/08 08:47:23;;;;;;;;;;;;;;;-144.99;80.72;52240.19;5037922;22;19959;-73
2022/09/08 08:50:07;;;;;;;;;;;;;;;-144.99;79.71;52256.50;5000742;28;19944;-72
2022/09/08 08:52:54;;;;;;;;;;;;;;;-144.99;80.05;52268.72;5001083;28;19929;-73
2022/09/08 08:55:36;;;;;;;;;;;;;;;-144.99;79.30;52301.34;5005968;28;19933;-74
2022/09/08 08:58:11;;;;;;;;;;;;;;;-144.99;79.64;52264.66;5007725;28;20444;-74
2022/09/08 09:00:40;;;;;;;;;;;;;;;-144.99;78.45;52244.28;5008877;28;19945;-75
2022/09/08 09:03:20;;;;;;;;;;;;;;;-144.99;78.17;52232.03;5005797;28;20021;-74
2022/09/08 09:06:00;;;;;;;;;;;;;;;-144.99;77.66;52254.47;5014023;28;20420;-75
2022/09/08 09:08:41;;;;;;;;;;;;;;;-144.99;76.89;52207.59;5007788;28;20244;-75
2022/09/08 09:11:19;;;;;;;;;;;;;;;-144.99;76.59;52236.13;5008560;28;19929;-76
2022/09/08 09:14:03;;;;;;;;;;;;;;;-144.99;76.75;52250.38;5011205;28;19941;-75
2022/09/08 09:16:38;;;;;;;;;;;;;;;-144.99;76.25;52227.97;4989060;28;19933;-75
2022/09/08 09:19:18;;;;;;;;;;;;;;;-144.99;74.00;52238.16;5009599;28;20372;-74
2022/09/08 09:21:50;;;;;;;;;;;;;;;-144.99;74.81;52252.44;5002891;28;19937;-72
2022/09/08 09:24:25;;;;;;;;;;;;;;;-144.99;72.86;52264.66;5003475;28;19984;-75
2022/09/08 09:26:54;;;;;;;;;;;;;;;-144.99;72.47;52254.47;5006593;28;19929;-72
2022/09/08 09:29:21;;;;;;;;;;;;;;;-144.99;72.49;52264.66;5006652;28;20098;-75
2022/09/08 09:32:14;;;;;;;;;;;;;;;-144.99;72.19;52207.59;5011857;28;20266;-74
2022/09/08 09:34:52;;;;;;;;;;;;;;;-144.99;71.65;52207.59;5010507;28;19930;-75
2022/09/08 09:37:26;;;;;;;;;;;;;;;-144.99;71.18;52248.34;5025678;28;19937;-75
2022/09/08 09:40:03;;;;;;;;;;;;;;;-144.99;70.00;52232.03;5006850;28;20380;-76
2022/09/08 09:42:45;;;;;;;;;;;;;;;-144.99;69.59;52256.50;5012510;28;19933;-76
2022/09/08 09:45:23;;;;;;;;;;;;;;;-144.99;69.82;52211.66;5007013;28;20431;-75
2022/09/08 09:48:04;;;;;;;;;;;;;;;-144.99;69.41;52219.81;5004898;28;19929;-73
2022/09/08 09:50:46;;;;;;;;;;;;;;;-144.99;68.38;52236.13;5005760;28;20342;-75
2022/09/08 09:53:22;;;;;;;;;;;;;;;-144.99;67.63;52260.56;5000821;28;19930;-77
2022/09/08 09:56:07;;;;;;;;;;;;;;;-144.99;66.78;52244.28;5006437;28;20312;-74
2022/09/08 09:58:52;;;;;;;;;;;;;;;-144.99;65.82;52232.03;5007135;28;19933;-74
2022/09/08 10:01:33;;;;;;;;;;;;;;;-144.99;65.32;52223.88;5003982;28;20028;-73
2022/09/08 10:04:18;;;;;;;;;;;;;;;-144.99;64.86;52225.94;5001620;28;19930;-76
2022/09/08 10:07:00;;;;;;;;;;;;;;;-144.99;64.70;52232.03;5004677;28;20600;-75
2022/09/08 10:09:37;;;;;;;;;;;;;;;-144.99;63.55;52260.56;5006207;28;19961;-74
2022/09/08 10:12:13;;;;;;;;;;;;;;;-144.99;64.03;52234.09;5000522;28;19929;-77
2022/09/08 10:15:02;;;;;;;;;;;;;;;-144.99;63.09;52230.00;5005963;28;19933;-72
2022/09/08 10:17:46;;;;;;;;;;;;;;;-144.99;63.85;52234.09;5004744;28;20250;-75
2022/09/08 10:20:27;;;;;;;;;;;;;;;-144.99;63.55;52203.50;4649914;28;10000871;-76
2022/09/08 10:23:05;;;;;;;;;;;;;;;-144.99;63.09;52260.56;5001101;28;19932;-73
2022/09/08 10:25:46;;;;;;;;;;;;;;;-144.99;63.24;52203.50;5003084;28;19944;-75
2022/09/08 10:28:30;;;;;;;;;;;;;;;-144.99;63.30;52227.97;4990797;28;20365;-75
2022/09/08 10:31:13;;;;;;;;;;;;;;;-144.99;62.23;52211.66;5001861;28;19930;-73
2022/09/08 10:33:59;;;;;;;;;;;;;;;-144.99;62.25;52244.28;5005180;28;19940;-76
2022/09/08 10:36:32;;;;;;;;;;;;;;;-144.99;62.54;52191.28;5005682;28;19936;-73
2022/09/08 10:39:10;;;;;;;;;;;;;;;-144.99;62.90;52264.66;5005525;28;19929;-74
2022/09/08 10:41:51;;;;;;;;;;;;;;;-144.99;63.09;52240.19;5001244;28;19925;-75
2022/09/08 10:44:32;;;;;;;;;;;;;;;-144.99;63.54;52219.81;4999028;28;19929;-75
2022/09/08 10:47:19;;;;;;;;;;;;;;;-144.99;63.16;52250.38;5006064;28;19926;-76
2022/09/08 10:50:00;;;;;;;;;;;;;;;-144.99;63.85;52219.81;5011819;28;19929;-75
2022/09/08 10:52:27;;;;;;;;;;;;;;;-144.99;64.24;52248.34;5019392;28;20448;-77
2022/09/08 10:55:12;;;;;;;;;;;;;;;-144.99;64.31;52280.97;5017514;28;19935;-75
2022/09/08 10:57:49;;;;;;;;;;;;;;;-144.99;64.61;52248.34;5022601;28;19936;-75
2022/09/08 11:00:19;;;;;;;;;;;;;;;-144.99;64.69;52230.00;5018221;28;19929;-76
2022/09/08 11:02:52;;;;;;;;;;;;;;;-144.99;65.25;52211.66;5018252;28;19977;-75
2022/09/08 11:05:33;;;;;;;;;;;;;;;-144.99;65.55;52264.66;5015819;28;20472;-74
2022/09/08 11:08:11;;;;;;;;;;;;;;;-144.99;65.93;52272.81;5004459;28;19933;-72
2022/09/08 11:10:49;;;;;;;;;;;;;;;-144.99;66.20;52205.53;4999823;28;19929;-75
2022/09/08 11:13:25;;;;;;;;;;;;;;;-144.99;66.04;52244.28;5003691;28;19929;-76
2022/09/08 11:16:02;;;;;;;;;;;;;;;-144.99;65.61;52258.53;5004479;28;19948;-74
2022/09/08 11:18:34;;;;;;;;;;;;;;;-144.99;66.00;52276.88;4996405;28;19934;-74
2022/09/08 11:21:03;;;;;;;;;;;;;;;-144.99;66.28;52219.81;5005486;28;20218;-71
2022/09/08 11:23:42;;;;;;;;;;;;;;;-144.99;66.27;52268.72;5004430;28;19926;-75
2022/09/08 11:26:29;;;;;;;;;;;;;;;-144.99;66.45;52280.97;5004073;28;19930;-74
2022/09/08 11:29:02;;;;;;;;;;;;;;;-144.99;66.68;52260.56;5005906;28;19930;-75
2022/09/08 11:31:33;;;;;;;;;;;;;;;-144.99;67.51;52250.38;4995929;28;19930;-72
2022/09/08 11:34:11;;;;;;;;;;;;;;;-144.99;71.02;52256.50;5002005;28;19926;-73
2022/09/08 11:36:46;;;;;;;;;;;;;;;-144.99;76.96;52297.25;5005120;28;19925;-74
2022/09/08 11:39:22;;;;;;;;;;;;;;;-144.99;85.41;52287.06;5006542;28;20276;-73
2022/09/08 11:42:03;;;;;;;;;;;;;;;-144.99;91.49;52309.50;5002207;28;20364;-73
2022/09/08 11:44:40;;;;;;;;;;;;;;;-144.99;93.82;52285.03;5001560;28;19930;-75
2022/09/08 11:47:15;;;;;;;;;;;;;;;-144.99;97.95;52325.81;5002769;28;20142;-74
2022/09/08 11:49:58;;;;;;;;;;;;;;;-144.99;100.00;52321.72;5013380;28;19937;-74
2022/09/08 11:52:43;;;;;;;;;;;;;;;-144.99;100.00;52289.13;4999841;28;20442;-73
2022/09/08 11:55:24;;;;;;;;;;;;;;;-144.99;100.00;52289.13;5004128;28;19937;-75
2022/09/08 11:57:56;;;;;;;;;;;;;;;-144.99;100.00;52272.81;5004121;28;20296;-75
2022/09/08 12:00:27;;;;;;;;;;;;;;;-144.99;100.00;52301.34;5000572;28;19942;-74
2022/09/08 12:03:03;;;;;;;;;;;;;;;-144.99;100.00;52305.41;4993791;28;19925;-75
2022/09/08 12:05:32;;;;;;;;;;;;;;;-144.99;100.00;52264.66;5004442;28;19954;-74
2022/09/08 12:08:13;;;;;;;;;;;;;;;-144.99;100.00;52264.66;5004670;28;19933;-73
2022/09/08 12:10:50;;;;;;;;;;;;;;;-144.99;100.00;52305.41;5002056;28;19940;-71
2022/09/08 12:13:22;;;;;;;;;;;;;;;-144.99;100.00;52321.72;5003508;28;19969;-73
2022/09/08 12:16:18;;;;;;;;;;;;;;;-144.99;100.00;52276.88;5004612;28;19929;-74
2022/09/08 12:18:51;;;;;;;;;;;;;;;-144.99;100.00;52280.97;4935624;28;19930;-72
2022/09/08 12:21:29;;;;;;;;;;;;;;;-144.99;100.00;52272.81;4995422;28;19925;-72
2022/09/08 12:24:01;;;;;;;;;;;;;;;-144.99;100.00;52280.97;5007118;28;19941;-73
2022/09/08 12:26:42;;;;;;;;;;;;;;;-144.99;100.00;52301.34;5021961;28;19988;-74
2022/09/08 12:29:17;;;;;;;;;;;;;;;-144.99;100.00;52266.69;5017390;28;20300;-73
2022/09/08 12:31:50;;;;;;;;;;;;;;;-144.99;100.00;52244.28;5004853;28;20397;-75
2022/09/08 12:34:28;;;;;;;;;;;;;;;-144.99;100.00;52283.00;5003002;28;19949;-73
2022/09/08 12:36:59;;;;;;;;;;;;;;;-144.99;100.00;52260.56;5004622;28;19930;-73
2022/09/08 12:39:42;;;;;;;;;;;;;;;-144.99;100.00;52264.66;4996291;28;20402;-73
2022/09/08 12:42:20;;;;;;;;;;;;;;;-144.99;100.00;52264.66;5005090;28;20427;-72
2022/09/08 12:44:52;;;;;;;;;;;;;;;-144.99;100.00;52289.13;4999912;28;19983;-74
2022/09/08 12:47:30;;;;;;;;;;;;;;;-144.99;100.00;52262.63;5002042;28;20304;-73
2022/09/08 12:50:03;;;;;;;;;;;;;;;-144.99;100.00;52289.13;5004002;28;20146;-73
2022/09/08 12:52:44;;;;;;;;;;;;;;;-144.99;100.00;52248.34;5008082;28;19929;-74
2022/09/08 12:55:17;;;;;;;;;;;;;;;-144.99;100.00;52248.34;5000562;28;20042;-72